createdAt,value
2022-08-14T00:02:51.850Z,21.18
2022-08-14T00:08:44.506Z,21.14
2022-08-14T00:14:17.312Z,21.11
2022-08-14T00:19:48.332Z,21.08
2022-08-14T00:25:20.803Z,21.04
2022-08-14T00:30:53.818Z,21.02
2022-08-14T00:36:37.694Z,21.01
2022-08-14T00:42:21.343Z,20.96
2022-08-14T00:48:11.989Z,20.94
2022-08-14T00:53:43.798Z,20.92
2022-08-14T00:59:16.178Z,20.89
2022-08-14T01:04:53.778Z,20.87
2022-08-14T01:10:47.119Z,20.82
2022-08-14T01:16:27.921Z,20.78
2022-08-14T01:22:01.142Z,20.73
2022-08-14T01:27:53.419Z,20.68
2022-08-14T01:33:29.406Z,20.62
2022-08-14T01:39:01.176Z,20.57
2022-08-14T01:44:34.543Z,20.48
2022-08-14T01:50:08.223Z,20.41
2022-08-14T01:55:41.206Z,20.37
2022-08-14T02:01:15.558Z,20.33
2022-08-14T02:06:48.424Z,20.28
2022-08-14T02:12:26.370Z,20.22
2022-08-14T02:18:04.685Z,20.19
2022-08-14T02:23:36.797Z,20.14
2022-08-14T02:29:13.078Z,20.11
2022-08-14T02:34:44.609Z,20.08
2022-08-14T02:40:19.477Z,20.05
2022-08-14T02:45:50.583Z,20.02
2022-08-14T02:51:21.906Z,19.99
2022-08-14T02:57:16.012Z,19.98
2022-08-14T03:02:58.593Z,19.94
2022-08-14T03:08:34.455Z,19.92
2022-08-14T03:14:05.623Z,19.90
2022-08-14T03:19:37.768Z,19.89
2022-08-14T03:25:12.366Z,19.88
2022-08-14T03:30:44.026Z,19.89
2022-08-14T03:37:38.964Z,19.87
2022-08-14T03:42:19.212Z,19.86
2022-08-14T03:47:58.393Z,19.85
2022-08-14T03:53:34.212Z,19.85
2022-08-14T03:59:18.019Z,19.84
2022-08-14T04:04:50.369Z,19.83
2022-08-14T04:10:26.246Z,19.82
2022-08-14T04:16:12.486Z,19.82
2022-08-14T04:22:08.083Z,19.83
2022-08-14T04:27:48.644Z,19.82
2022-08-14T04:33:32.309Z,19.82
2022-08-14T04:39:22.158Z,19.81
2022-08-14T04:45:00.598Z,19.83
2022-08-14T04:50:43.690Z,19.86
2022-08-14T04:56:31.050Z,19.91
2022-08-14T05:02:05.677Z,19.95
2022-08-14T05:07:54.356Z,19.98
2022-08-14T05:13:31.879Z,20.02
2022-08-14T05:19:18.037Z,20.06
2022-08-14T05:24:58.387Z,20.10
2022-08-14T05:30:29.706Z,20.12
2022-08-14T05:36:04.270Z,20.16
2022-08-14T05:41:52.969Z,20.21
2022-08-14T05:47:28.930Z,20.22
2022-08-14T05:53:09.353Z,20.22
2022-08-14T05:58:41.659Z,20.21
2022-08-14T06:04:13.362Z,20.20
2022-08-14T06:09:50.997Z,20.16
2022-08-14T06:15:29.623Z,20.19
2022-08-14T06:21:02.562Z,20.22
2022-08-14T06:26:34.295Z,20.29
2022-08-14T06:32:38.356Z,20.39
2022-08-14T06:37:59.555Z,20.59
2022-08-14T06:43:32.461Z,20.78
2022-08-14T06:49:03.895Z,20.85
2022-08-14T06:54:35.873Z,20.84
2022-08-14T07:00:09.989Z,20.79
2022-08-14T07:05:57.762Z,20.70
2022-08-14T07:11:29.872Z,20.63
2022-08-14T07:17:01.221Z,20.66
2022-08-14T07:22:56.397Z,20.69
2022-08-14T07:28:35.833Z,20.76
2022-08-14T07:34:36.092Z,20.86
2022-08-14T07:40:06.766Z,21.08
2022-08-14T07:45:40.629Z,21.35
2022-08-14T07:51:11.705Z,21.71
2022-08-14T07:56:46.979Z,22.04
2022-08-14T08:02:20.502Z,22.23
2022-08-14T08:07:53.901Z,22.39
2022-08-14T08:13:29.214Z,22.60
2022-08-14T08:19:05.894Z,22.84
2022-08-14T08:24:45.504Z,23.04
2022-08-14T08:30:16.753Z,23.17
2022-08-14T08:35:50.619Z,23.21
2022-08-14T08:41:21.901Z,23.23
2022-08-14T08:46:58.863Z,23.30
2022-08-14T08:52:31.538Z,23.25
2022-08-14T08:58:12.386Z,23.14
2022-08-14T09:03:47.828Z,23.02
2022-08-14T09:09:33.107Z,22.92
2022-08-14T09:15:08.951Z,23.09
2022-08-14T09:20:46.378Z,23.14
2022-08-14T09:26:20.897Z,23.05
2022-08-14T09:31:57.553Z,23.06
2022-08-14T09:37:41.547Z,23.15
2022-08-14T09:43:42.209Z,23.52
2022-08-14T09:49:16.418Z,23.57
2022-08-14T09:54:49.440Z,23.63
2022-08-14T10:06:59.030Z,23.86
2022-08-14T10:12:54.688Z,23.83
2022-08-14T10:18:28.662Z,23.91
2022-08-14T10:24:00.317Z,23.94
2022-08-14T10:29:37.703Z,23.94
2022-08-14T10:35:14.802Z,23.90
2022-08-14T10:40:52.232Z,24.05
2022-08-14T10:47:40.339Z,24.00
2022-08-14T10:52:34.901Z,23.86
2022-08-14T10:58:13.998Z,23.65
2022-08-14T11:03:55.661Z,23.40
2022-08-14T11:09:31.383Z,23.12
2022-08-14T11:15:03.759Z,22.92
2022-08-14T11:20:39.068Z,22.86
2022-08-14T11:26:11.835Z,22.90
2022-08-14T11:31:44.810Z,23.11
2022-08-14T11:37:33.912Z,23.69
2022-08-14T11:43:11.077Z,23.98
2022-08-14T11:49:04.360Z,24.31
2022-08-14T11:54:38.267Z,24.47
2022-08-14T12:00:14.745Z,24.32
2022-08-14T12:05:51.246Z,24.25
2022-08-14T12:11:22.563Z,24.14
2022-08-14T12:17:12.128Z,24.10
2022-08-14T12:22:52.661Z,24.41
2022-08-14T12:28:34.103Z,24.74
2022-08-14T12:34:24.105Z,24.76
2022-08-14T12:39:55.973Z,24.68
2022-08-14T12:45:33.806Z,24.88
2022-08-14T12:51:18.412Z,25.07
2022-08-14T12:57:08.001Z,25.22
2022-08-14T13:02:42.428Z,25.34
2022-08-14T13:08:32.933Z,25.66
2022-08-14T13:14:06.729Z,26.01
2022-08-14T13:19:45.984Z,26.13
2022-08-14T13:25:26.164Z,25.92
2022-08-14T13:30:58.171Z,25.60
2022-08-14T13:36:54.194Z,25.33
2022-08-14T13:42:23.142Z,25.14
2022-08-14T13:47:55.641Z,24.91
2022-08-14T13:53:33.135Z,24.81
2022-08-14T13:59:04.863Z,24.76
2022-08-14T14:04:42.987Z,24.67
2022-08-14T14:10:28.221Z,24.54
2022-08-14T14:16:02.564Z,24.63
2022-08-14T14:21:35.210Z,24.71
2022-08-14T14:27:38.994Z,24.75
2022-08-14T14:33:02.219Z,24.60
2022-08-14T14:38:41.137Z,24.62
2022-08-14T14:44:15.873Z,24.78
2022-08-14T14:49:55.120Z,24.75
2022-08-14T14:55:27.841Z,24.65
2022-08-14T15:01:23.746Z,24.83
2022-08-14T15:06:55.228Z,24.98
2022-08-14T15:12:34.403Z,25.10
2022-08-14T15:18:38.368Z,24.98
2022-08-14T15:24:13.861Z,24.70
2022-08-14T15:29:48.488Z,24.38
2022-08-14T15:35:22.230Z,24.02
2022-08-14T15:40:56.133Z,23.65
2022-08-14T15:46:42.947Z,23.37
2022-08-14T15:52:16.339Z,23.12
2022-08-14T15:58:07.220Z,22.94
2022-08-14T16:03:46.373Z,22.77
2022-08-14T16:09:21.278Z,22.62
2022-08-14T16:14:53.598Z,22.56
2022-08-14T16:20:41.559Z,22.46
2022-08-14T16:26:29.854Z,22.33
2022-08-14T16:32:32.511Z,22.22
2022-08-14T16:37:56.318Z,22.15
2022-08-14T16:43:29.993Z,22.06
2022-08-14T16:49:06.836Z,21.96
2022-08-14T16:54:44.528Z,21.90
2022-08-14T17:00:49.262Z,21.89
2022-08-14T17:06:43.066Z,21.91
2022-08-14T17:12:35.043Z,21.93
2022-08-14T17:18:14.863Z,21.87
2022-08-14T17:24:55.922Z,21.79
2022-08-14T17:29:58.000Z,21.66
2022-08-14T17:41:23.735Z,21.63
2022-08-14T17:47:08.289Z,21.78
2022-08-14T17:52:50.237Z,21.90
2022-08-14T17:58:27.267Z,21.94
2022-08-14T18:04:05.434Z,21.97
2022-08-14T18:09:57.635Z,21.96
2022-08-14T18:15:37.089Z,21.97
2022-08-14T18:21:24.200Z,21.95
2022-08-14T18:27:22.986Z,21.95
2022-08-14T18:32:55.667Z,21.93
2022-08-14T18:38:55.453Z,21.93
2022-08-14T18:44:50.804Z,21.93
2022-08-14T18:50:27.025Z,21.92
2022-08-14T18:56:09.861Z,21.92
2022-08-14T19:01:44.266Z,21.91
2022-08-14T19:07:23.868Z,21.90
2022-08-14T19:13:03.354Z,21.89
2022-08-14T19:19:00.118Z,21.86
2022-08-14T19:24:35.768Z,21.83
2022-08-14T19:30:20.046Z,21.81
2022-08-14T19:35:59.790Z,21.77
2022-08-14T19:41:34.948Z,21.72
2022-08-14T19:47:09.438Z,21.70
2022-08-14T19:52:42.488Z,21.65
2022-08-14T19:58:26.020Z,21.61
2022-08-14T20:04:02.973Z,21.56
2022-08-14T20:11:03.335Z,21.50
2022-08-14T20:21:34.318Z,21.37
2022-08-14T20:27:34.053Z,21.33
2022-08-14T20:33:10.664Z,21.27
2022-08-14T20:38:42.736Z,21.21
2022-08-14T20:44:42.159Z,21.15
2022-08-14T20:50:23.573Z,21.08
2022-08-14T20:56:04.688Z,21.01
2022-08-14T21:01:56.757Z,20.92
2022-08-14T21:07:36.161Z,20.88
2022-08-14T21:14:08.647Z,20.80
2022-08-14T21:19:05.886Z,20.73
2022-08-14T21:24:47.489Z,20.67
2022-08-14T21:30:21.216Z,20.61
2022-08-14T21:36:12.019Z,20.57
2022-08-14T21:41:54.439Z,20.54
2022-08-14T21:47:30.297Z,20.49
2022-08-14T21:53:03.622Z,20.42
2022-08-14T21:58:53.659Z,20.35
2022-08-14T22:04:33.332Z,20.33
2022-08-14T22:10:07.900Z,20.33
2022-08-14T22:15:43.852Z,20.28
2022-08-14T22:21:22.679Z,20.25
2022-08-14T22:26:55.154Z,20.24
2022-08-14T22:32:56.701Z,20.22
2022-08-14T22:38:37.168Z,20.22
2022-08-14T22:44:28.437Z,20.18
2022-08-14T22:50:31.158Z,20.14
2022-08-14T22:55:52.515Z,20.12
2022-08-14T23:01:56.140Z,20.10
2022-08-14T23:08:56.115Z,20.08
2022-08-14T23:13:20.642Z,20.06
2022-08-14T23:18:53.915Z,20.03
2022-08-14T23:24:27.333Z,19.99
2022-08-14T23:29:59.013Z,19.95
2022-08-14T23:35:33.069Z,19.89
2022-08-14T23:41:12.885Z,19.84
2022-08-14T23:46:52.629Z,19.79
2022-08-14T23:52:50.248Z,19.73
2022-08-14T23:58:29.599Z,19.69
